createdAt,value
2018-09-05T00:01:28.786Z,58
2018-09-05T00:11:28.706Z,56
2018-09-05T00:21:27.761Z,56
2018-09-05T00:31:27.999Z,56
2018-09-05T00:41:26.934Z,59
2018-09-05T00:51:26.841Z,59
2018-09-05T01:01:29.265Z,57
2018-09-05T01:11:27.307Z,57
2018-09-05T01:21:27.712Z,58
2018-09-05T01:31:29.854Z,57
2018-09-05T01:41:27.895Z,57
2018-09-05T01:51:26.882Z,59
2018-09-05T02:01:28.173Z,59
2018-09-05T02:11:28.894Z,58
2018-09-05T02:21:28.655Z,59
2018-09-05T02:31:29.181Z,57
2018-09-05T02:41:28.671Z,58
2018-09-05T02:51:26.933Z,58
2018-09-05T03:01:27.951Z,58
2018-09-05T03:11:27.256Z,59
2018-09-05T03:21:27.518Z,58
2018-09-05T03:32:35.340Z,58
2018-09-05T03:41:28.505Z,58
2018-09-05T03:51:27.492Z,58
2018-09-05T04:01:27.861Z,60
2018-09-05T04:11:27.792Z,59
2018-09-05T04:21:27.102Z,60
2018-09-05T04:31:28.313Z,60
2018-09-05T04:41:27.562Z,60
2018-09-05T04:51:30.557Z,59
2018-09-05T05:01:28.901Z,61
2018-09-05T05:11:29.014Z,59
2018-09-05T05:21:28.320Z,60
2018-09-05T05:31:28.235Z,60
2018-09-05T05:41:28.166Z,60
2018-09-05T05:51:28.855Z,60
2018-09-05T06:01:27.930Z,60
2018-09-05T06:11:28.147Z,61
2018-09-05T06:21:27.332Z,60
2018-09-05T06:31:28.410Z,61
2018-09-05T06:41:28.241Z,60
2018-09-05T06:51:29.156Z,61
2018-09-05T07:01:27.553Z,61
2018-09-05T07:11:28.601Z,60
2018-09-05T07:21:29.796Z,60
2018-09-05T07:31:28.228Z,60
2018-09-05T07:41:27.109Z,59
2018-09-05T07:51:27.214Z,60
2018-09-05T08:01:29.297Z,61
2018-09-05T08:11:27.943Z,60
2018-09-05T08:21:27.934Z,60
2018-09-05T08:31:28.708Z,60
2018-09-05T08:41:29.511Z,60
2018-09-05T08:51:28.034Z,60
2018-09-05T09:01:27.377Z,61
2018-09-05T09:11:27.950Z,60
2018-09-05T09:21:27.183Z,59
2018-09-05T09:31:28.621Z,60
2018-09-05T09:41:27.878Z,60
2018-09-05T09:51:28.761Z,59
2018-09-05T10:01:27.794Z,59
2018-09-05T10:11:28.093Z,59
2018-09-05T10:21:27.658Z,59
2018-09-05T10:31:28.485Z,58
2018-09-05T10:41:27.757Z,59
2018-09-05T10:51:28.720Z,56
2018-09-05T11:01:28.998Z,56
2018-09-05T11:11:27.041Z,56
2018-09-05T11:21:27.704Z,56
2018-09-05T11:31:32.829Z,53
2018-09-05T11:41:28.281Z,56
2018-09-05T11:51:27.923Z,53
2018-09-05T12:01:28.047Z,50
2018-09-05T12:11:27.364Z,55
2018-09-05T12:21:28.241Z,53
2018-09-05T12:31:27.229Z,51
2018-09-05T12:41:27.949Z,50
2018-09-05T12:51:27.803Z,50
2018-09-05T13:01:30.078Z,49
2018-09-05T13:11:27.577Z,48
2018-09-05T13:21:33.861Z,49
2018-09-05T13:31:28.651Z,48
2018-09-05T13:41:27.984Z,49
2018-09-05T13:51:27.803Z,47
2018-09-05T14:01:27.889Z,49
2018-09-05T14:11:28.079Z,46
2018-09-05T14:21:27.649Z,45
2018-09-05T14:31:28.851Z,45
2018-09-05T14:41:29.877Z,44
2018-09-05T14:51:27.035Z,44
2018-09-05T15:01:27.277Z,47
2018-09-05T15:11:27.358Z,47
2018-09-05T15:21:27.938Z,46
2018-09-05T15:31:32.395Z,44
2018-09-05T15:41:28.082Z,44
2018-09-05T15:51:27.018Z,43
2018-09-05T16:01:27.066Z,46
2018-09-05T16:11:27.657Z,46
2018-09-05T16:21:28.473Z,45
2018-09-05T16:31:28.316Z,43
2018-09-05T16:41:27.358Z,44
2018-09-05T16:51:28.031Z,45
2018-09-05T17:01:28.881Z,43
2018-09-05T17:11:28.256Z,46
2018-09-05T17:21:27.528Z,45
2018-09-05T17:31:27.708Z,46
2018-09-05T17:41:27.779Z,46
2018-09-05T17:51:30.314Z,44
2018-09-05T18:01:27.651Z,43
2018-09-05T18:11:27.905Z,46
2018-09-05T18:21:28.780Z,45
2018-09-05T18:31:29.308Z,43
2018-09-05T18:41:30.267Z,42
2018-09-05T18:51:27.889Z,47
2018-09-05T19:01:27.893Z,43
2018-09-05T19:11:27.157Z,47
2018-09-05T19:21:27.442Z,45
2018-09-05T19:31:27.509Z,46
2018-09-05T19:41:27.943Z,46
2018-09-05T19:51:27.078Z,45
2018-09-05T20:01:27.208Z,46
2018-09-05T20:11:27.431Z,46
2018-09-05T20:21:28.387Z,46
2018-09-05T20:31:28.176Z,45
2018-09-05T20:41:27.940Z,44
2018-09-05T20:51:27.140Z,47
2018-09-05T21:01:28.246Z,46
2018-09-05T21:11:27.884Z,48
2018-09-05T21:21:28.911Z,44
2018-09-05T21:31:27.192Z,47
2018-09-05T21:41:27.504Z,46
2018-09-05T21:51:28.066Z,47
2018-09-05T22:01:27.213Z,45
2018-09-05T22:11:28.126Z,46
2018-09-05T22:21:28.566Z,44
2018-09-05T22:31:29.078Z,44
2018-09-05T22:41:27.080Z,45
2018-09-05T22:51:27.656Z,47
2018-09-05T23:01:27.915Z,48
2018-09-05T23:11:26.923Z,47
2018-09-05T23:21:27.505Z,48
2018-09-05T23:31:27.645Z,46
2018-09-05T23:41:27.595Z,47
2018-09-05T23:51:29.027Z,45
